Time,TemperatureF,DewpointF,PressureIn,WindDirection,WindDirectionDegrees,WindSpeedMPH,WindSpeedGustMPH,Humidity,HourlyPrecipIn,Conditions,Clouds,dailyrainin,SoftwareType,DateUTC
2013-03-22 00:00:00,39.3,25.8,29.92,NNW,327,0.0,1.0,58,0.00,,CLR,0.00,VWS V14.01,2013-03-22 04:00:00,
2013-03-22 00:07:00,40.3,24.5,29.93,NNW,327,0.0,1.0,53,0.00,,CLR,0.00,VWS V14.01,2013-03-22 04:07:00,
2013-03-22 00:12:00,40.9,24.6,29.93,NNW,327,0.0,1.0,52,0.00,,CLR,0.00,VWS V14.01,2013-03-22 04:12:00,
2013-03-22 00:15:00,41.2,24.9,29.93,NNW,327,0.0,1.0,52,0.00,,SCT070,0.00,VWS V14.01,2013-03-22 04:15:00,
2013-03-22 00:22:00,41.5,23.8,29.94,North,11,0.0,2.0,49,0.00,,CLR,0.00,VWS V14.01,2013-03-22 04:22:00,
2013-03-22 00:27:00,41.6,23.4,29.94,North,9,0.0,2.0,48,0.00,,CLR,0.00,VWS V14.01,2013-03-22 04:27:00,
2013-03-22 00:30:00,41.6,23.4,29.94,NNW,331,0.0,2.0,48,0.00,,CLR,0.00,VWS V14.01,2013-03-22 04:30:00,
2013-03-22 00:37:00,41.5,22.8,29.94,NNW,337,0.0,1.0,47,0.00,,CLR,0.00,VWS V14.01,2013-03-22 04:37:00,
2013-03-22 00:42:00,41.3,23.1,29.94,NNW,337,0.0,1.0,48,0.00,,CLR,0.00,VWS V14.01,2013-03-22 04:42:00,
2013-03-22 00:45:00,41.2,23.0,29.94,NNW,337,0.0,1.0,48,0.00,,SCT070,0.00,VWS V14.01,2013-03-22 04:45:00,
2013-03-22 00:47:00,41.1,22.9,29.94,NNW,337,0.0,1.0,48,0.00,,CLR,0.00,VWS V14.01,2013-03-22 04:47:00,
2013-03-22 00:52:00,40.9,22.7,29.95,NNW,337,0.0,1.0,48,0.00,,CLR,0.00,VWS V14.01,2013-03-22 04:52:00,
2013-03-22 01:00:00,40.7,23.5,29.95,NNW,337,0.0,1.0,50,0.00,,CLR,0.00,VWS V14.01,2013-03-22 05:00:00,
2013-03-22 01:07:00,40.4,23.2,29.95,NNW,337,0.0,0.0,50,0.00,,CLR,0.00,VWS V14.01,2013-03-22 05:07:00,
2013-03-22 01:15:00,40.0,22.9,29.94,NNW,337,0.0,1.0,50,0.00,,CLR,0.00,VWS V14.01,2013-03-22 05:15:00,
2013-03-22 01:22:00,39.7,23.1,29.95,NNW,337,0.0,0.0,51,0.00,,CLR,0.00,VWS V14.01,2013-03-22 05:22:00,
2013-03-22 01:27:00,39.6,23.0,29.95,NNW,337,0.0,1.0,51,0.00,,CLR,0.00,VWS V14.01,2013-03-22 05:27:00,
2013-03-22 01:30:00,39.6,22.5,29.95,NNW,337,0.0,1.0,50,0.00,,SCT070,0.00,VWS V14.01,2013-03-22 05:30:00,
2013-03-22 01:37:00,39.5,21.9,29.95,NW,308,0.0,2.0,49,0.00,,CLR,0.00,VWS V14.01,2013-03-22 05:37:00,
2013-03-22 01:45:00,39.4,21.8,29.95,NW,314,0.0,2.0,49,0.00,,CLR,0.00,VWS V14.01,2013-03-22 05:45:00,
2013-03-22 01:52:00,39.3,21.8,29.95,NW,314,0.0,1.0,49,0.00,,CLR,0.00,VWS V14.01,2013-03-22 05:52:00,
2013-03-22 02:00:00,39.2,21.7,29.95,NW,314,0.0,1.0,49,0.00,,CLR,0.00,VWS V14.01,2013-03-22 06:00:00,
2013-03-22 02:06:00,39.2,21.7,29.95,WSW,254,0.0,6.0,49,0.00,,CLR,0.00,VWS V14.01,2013-03-22 06:06:00,
2013-03-22 02:15:00,39.2,21.7,29.95,North,360,0.0,6.0,49,0.00,,CLR,0.00,VWS V14.01,2013-03-22 06:15:00,
2013-03-22 02:21:00,39.2,21.7,29.96,North,355,1.0,1.0,49,0.00,,CLR,0.00,VWS V14.01,2013-03-22 06:21:00,
2013-03-22 02:26:00,39.2,21.7,29.96,North,360,0.0,5.0,49,0.00,,CLR,0.00,VWS V14.01,2013-03-22 06:26:00,
2013-03-22 02:30:00,39.2,22.1,29.96,North,5,0.0,5.0,50,0.00,,SCT070,0.00,VWS V14.01,2013-03-22 06:30:00,
2013-03-22 02:31:00,39.2,21.7,29.96,North,5,0.0,1.0,49,0.00,,CLR,0.00,VWS V14.01,2013-03-22 06:31:00,
2013-03-22 02:45:00,39.0,21.5,29.96,North,355,0.0,2.0,49,0.00,,CLR,0.00,VWS V14.01,2013-03-22 06:45:00,
2013-03-22 02:51:00,38.8,21.8,29.96,NNW,333,1.0,1.0,50,0.00,,CLR,0.00,VWS V14.01,2013-03-22 06:51:00,
2013-03-22 02:56:00,38.7,21.7,29.96,WNW,289,0.0,2.0,50,0.00,,CLR,0.00,VWS V14.01,2013-03-22 06:56:00,
2013-03-22 03:00:00,38.7,21.2,29.96,NNW,346,0.0,2.0,49,0.00,,SCT070,0.00,VWS V14.01,2013-03-22 07:00:00,
2013-03-22 03:02:00,38.7,21.7,29.96,NNW,346,0.0,0.0,50,0.00,,CLR,0.00,VWS V14.01,2013-03-22 07:02:00,
2013-03-22 03:07:00,38.6,21.6,29.96,NNW,346,0.0,1.0,50,0.00,,CLR,0.00,VWS V14.01,2013-03-22 07:07:00,
2013-03-22 03:12:00,38.4,21.4,29.96,NE,37,0.0,2.0,50,0.00,,CLR,0.00,VWS V14.01,2013-03-22 07:12:00,
2013-03-22 03:15:00,38.4,21.4,29.96,NE,37,0.0,2.0,50,0.00,,SCT070,0.00,VWS V14.01,2013-03-22 07:15:00,
2013-03-22 03:21:00,38.3,21.8,29.97,NNW,345,1.0,4.0,51,0.00,,CLR,0.00,VWS V14.01,2013-03-22 07:21:00,
2013-03-22 03:26:00,38.3,21.8,29.97,NW,317,0.0,4.0,51,0.00,,CLR,0.00,VWS V14.01,2013-03-22 07:26:00,
2013-03-22 03:30:00,38.3,21.8,29.97,NNE,21,0.0,4.0,51,0.00,,SCT070,0.00,VWS V14.01,2013-03-22 07:30:00,
2013-03-22 03:36:00,38.2,21.7,29.98,NNE,21,0.0,1.0,51,0.00,,CLR,0.00,VWS V14.01,2013-03-22 07:36:00,
2013-03-22 03:41:00,38.1,22.0,29.98,NNW,327,0.0,5.0,52,0.00,,CLR,0.00,VWS V14.01,2013-03-22 07:41:00,
2013-03-22 03:45:00,38.0,22.0,29.98,NW,323,0.0,5.0,52,0.00,,SCT070,0.00,VWS V14.01,2013-03-22 07:45:00,
2013-03-22 03:47:00,38.0,22.0,29.97,NW,304,0.0,1.0,52,0.00,,CLR,0.00,VWS V14.01,2013-03-22 07:47:00,
2013-03-22 03:52:00,37.9,21.9,29.98,NNE,19,0.0,2.0,52,0.00,,CLR,0.00,VWS V14.01,2013-03-22 07:52:00,
2013-03-22 04:00:00,37.7,21.7,29.98,NW,320,0.0,2.0,52,0.00,,CLR,0.00,VWS V14.01,2013-03-22 08:00:00,
2013-03-22 04:06:00,37.6,21.6,29.98,NW,319,0.0,1.0,52,0.00,,CLR,0.00,VWS V14.01,2013-03-22 08:06:00,
2013-03-22 04:15:00,37.4,21.9,29.99,NE,34,0.0,4.0,53,0.00,,CLR,0.00,VWS V14.01,2013-03-22 08:15:00,
2013-03-22 04:21:00,37.2,21.2,29.99,NE,35,0.0,2.0,52,0.00,,CLR,0.00,VWS V14.01,2013-03-22 08:21:00,
2013-03-22 04:26:00,37.1,21.1,30.00,NNE,30,0.0,2.0,52,0.00,,CLR,0.00,VWS V14.01,2013-03-22 08:26:00,
2013-03-22 04:30:00,37.1,21.1,30.00,NNE,29,0.0,2.0,52,0.00,,SCT070,0.00,VWS V14.01,2013-03-22 08:30:00,
2013-03-22 04:31:00,37.0,21.0,30.00,NNE,30,0.0,1.0,52,0.00,,CLR,0.00,VWS V14.01,2013-03-22 08:31:00,
2013-03-22 04:41:00,36.9,20.9,30.00,NNE,30,0.0,1.0,52,0.00,,CLR,0.00,VWS V14.01,2013-03-22 08:41:00,
2013-03-22 04:45:00,36.8,21.3,30.01,NNE,30,0.0,1.0,53,0.00,,SCT070,0.00,VWS V14.01,2013-03-22 08:45:00,
2013-03-22 04:46:00,36.8,21.3,30.01,NNE,29,0.0,0.0,53,0.00,,CLR,0.00,VWS V14.01,2013-03-22 08:46:00,
2013-03-22 05:00:00,36.7,19.8,30.01,WNW,290,0.0,2.0,50,0.00,,SCT070,0.00,VWS V14.01,2013-03-22 09:00:00,
2013-03-22 05:15:00,37.4,21.9,29.99,NE,34,0.0,4.0,53,0.00,,OVC060,0.00,VWS V14.01,2013-03-22 09:15:00,
2013-03-22 05:30:00,37.1,21.1,30.00,NNE,29,0.0,2.0,52,0.00,,OVC060,0.00,VWS V14.01,2013-03-22 09:30:00,
2013-03-22 05:45:00,36.8,21.3,30.01,NNE,30,0.0,1.0,53,0.00,,OVC060,0.00,VWS V14.01,2013-03-22 09:45:00,
2013-03-22 06:00:00,36.7,19.8,30.01,WNW,290,0.0,2.0,50,0.00,,OVC060,0.00,VWS V14.01,2013-03-22 10:00:00,
2013-03-22 14:45:00,51.3,27.8,30.01,NNW,327,0.0,0.0,40,0.00,,CLR,0.00,VWS V14.01,2013-03-22 18:45:00,
2013-03-22 14:54:00,51.6,27.5,30.01,West,259,0.0,2.0,39,0.00,,CLR,0.00,VWS V14.01,2013-03-22 18:54:00,
2013-03-22 14:58:00,52.0,27.8,30.00,West,259,0.0,2.0,39,0.00,,CLR,0.00,VWS V14.01,2013-03-22 18:58:00,
2013-03-22 15:00:00,52.1,27.9,30.01,West,259,0.0,2.0,39,0.00,,SCT070,0.00,VWS V14.01,2013-03-22 19:00:00,
2013-03-22 15:03:00,52.3,27.5,30.00,SW,215,0.0,2.0,38,0.00,,BKN090,0.00,VWS V14.01,2013-03-22 19:03:00,
2013-03-22 15:13:00,51.8,27.0,30.00,SW,215,0.0,2.0,38,0.00,,BKN090,0.00,VWS V14.01,2013-03-22 19:13:00,
2013-03-22 15:15:00,51.7,26.9,30.00,SW,215,0.0,2.0,38,0.00,,SCT070,0.00,VWS V14.01,2013-03-22 19:15:00,
2013-03-22 15:18:00,51.6,26.8,30.00,SW,215,0.0,2.0,38,0.00,,BKN090,0.00,VWS V14.01,2013-03-22 19:18:00,
2013-03-22 15:23:00,51.6,26.8,30.00,SW,215,0.0,2.0,38,0.00,,BKN090,0.00,VWS V14.01,2013-03-22 19:23:00,
2013-03-22 15:28:00,51.7,27.6,30.00,SW,215,0.0,2.0,39,0.00,,BKN090,0.00,VWS V14.01,2013-03-22 19:28:00,
2013-03-22 15:30:00,51.6,26.8,30.00,SW,215,0.0,2.0,38,0.00,,SCT070,0.00,VWS V14.01,2013-03-22 19:30:00,
2013-03-22 15:38:00,51.5,26.8,30.00,SW,214,0.0,1.0,38,0.00,,BKN090,0.00,VWS V14.01,2013-03-22 19:38:00,
2013-03-22 15:43:00,51.5,26.8,30.00,West,267,0.0,3.0,38,0.00,,BKN090,0.00,VWS V14.01,2013-03-22 19:43:00,
2013-03-22 15:45:00,51.5,27.4,30.00,West,267,0.0,3.0,39,0.00,,SCT070,0.00,VWS V14.01,2013-03-22 19:45:00,
2013-03-22 15:53:00,51.6,26.8,30.00,West,267,0.0,1.0,38,0.00,,BKN090,0.00,VWS V14.01,2013-03-22 19:53:00,
2013-03-22 15:58:00,51.8,27.6,30.00,West,267,0.0,1.0,39,0.00,,BKN090,0.00,VWS V14.01,2013-03-22 19:58:00,
2013-03-22 16:00:00,51.9,25.8,30.00,West,267,0.0,1.0,36,0.00,,SCT070,0.00,VWS V14.01,2013-03-22 20:00:00,
2013-03-22 16:08:00,52.1,27.3,30.00,West,267,0.0,1.0,38,0.00,,FEW090,0.00,VWS V14.01,2013-03-22 20:08:00,
2013-03-22 16:15:00,52.0,26.5,29.99,West,263,0.0,2.0,37,0.00,,FEW090,0.00,VWS V14.01,2013-03-22 20:15:00,
2013-03-22 16:23:00,51.8,27.0,30.00,NW,326,0.0,4.0,38,0.00,,FEW090,0.00,VWS V14.01,2013-03-22 20:23:00,
2013-03-22 16:30:00,51.7,27.6,29.99,SSW,203,0.0,4.0,39,0.00,,FEW090,0.00,VWS V14.01,2013-03-22 20:30:00,
2013-03-22 16:38:00,51.9,27.1,29.99,NW,304,0.0,2.0,38,0.00,,FEW090,0.00,VWS V14.01,2013-03-22 20:38:00,
2013-03-22 16:45:00,51.9,27.1,29.99,NW,304,0.0,2.0,38,0.00,,FEW090,0.00,VWS V14.01,2013-03-22 20:45:00,
2013-03-22 16:53:00,52.0,28.5,29.99,WNW,299,0.0,1.0,40,0.00,,FEW090,0.00,VWS V14.01,2013-03-22 20:53:00,
2013-03-22 16:58:00,52.2,28.6,29.99,WNW,299,0.0,1.0,40,0.00,,FEW090,0.00,VWS V14.01,2013-03-22 20:58:00,
2013-03-22 17:00:00,52.3,28.1,29.99,WNW,299,0.0,1.0,39,0.00,,SCT070,0.00,VWS V14.01,2013-03-22 21:00:00,
2013-03-22 17:08:00,52.3,28.7,29.99,WNW,299,0.0,1.0,40,0.00,,SCT100,0.00,VWS V14.01,2013-03-22 21:08:00,
2013-03-22 17:13:00,52.3,28.7,29.99,WNW,298,0.0,2.0,40,0.00,,SCT100,0.00,VWS V14.01,2013-03-22 21:13:00,
2013-03-22 17:15:00,52.3,28.7,29.99,WNW,292,0.0,2.0,40,0.00,,SCT070,0.00,VWS V14.01,2013-03-22 21:15:00,
2013-03-22 17:23:00,52.4,29.4,29.98,WNW,292,0.0,1.0,41,0.00,,SCT100,0.00,VWS V14.01,2013-03-22 21:23:00,
2013-03-22 17:30:00,52.5,28.9,29.99,WNW,292,0.0,1.0,40,0.00,,SCT100,0.00,VWS V14.01,2013-03-22 21:30:00,
2013-03-22 17:38:00,52.2,28.6,29.98,WNW,292,0.0,1.0,40,0.00,,SCT100,0.00,VWS V14.01,2013-03-22 21:38:00,
2013-03-22 17:45:00,51.9,30.1,29.98,WNW,292,0.0,1.0,43,0.00,,SCT100,0.00,VWS V14.01,2013-03-22 21:45:00,
2013-03-22 17:53:00,52.0,30.2,29.98,WNW,292,0.0,0.0,43,0.00,,SCT100,0.00,VWS V14.01,2013-03-22 21:53:00,
2013-03-22 17:58:00,52.1,30.3,29.98,WNW,286,0.0,2.0,43,0.00,,SCT100,0.00,VWS V14.01,2013-03-22 21:58:00,
2013-03-22 18:00:00,52.0,30.2,29.98,WNW,286,0.0,2.0,43,0.00,,SCT070,0.00,VWS V14.01,2013-03-22 22:00:00,
2013-03-22 18:03:00,52.0,29.6,29.98,WNW,285,0.0,0.0,42,0.00,,OVC095,0.00,VWS V14.01,2013-03-22 22:03:00,
2013-03-22 18:13:00,52.1,30.3,29.98,WNW,286,0.0,1.0,43,0.00,,OVC095,0.00,VWS V14.01,2013-03-22 22:13:00,
2013-03-22 18:15:00,52.1,29.1,29.98,WNW,286,0.0,1.0,41,0.00,,SCT070,0.00,VWS V14.01,2013-03-22 22:15:00,
2013-03-22 18:18:00,52.1,30.3,29.98,WNW,286,0.0,0.0,43,0.00,,OVC095,0.00,VWS V14.01,2013-03-22 22:18:00,
2013-03-22 18:28:00,51.9,30.1,29.98,WNW,286,0.0,0.0,43,0.00,,OVC095,0.00,VWS V14.01,2013-03-22 22:28:00,
2013-03-22 18:30:00,51.8,30.0,29.98,WNW,286,0.0,0.0,43,0.00,,SCT070,0.00,VWS V14.01,2013-03-22 22:30:00,
2013-03-22 18:33:00,51.7,30.5,29.99,WNW,286,0.0,1.0,44,0.00,,OVC095,0.00,VWS V14.01,2013-03-22 22:33:00,
2013-03-22 18:43:00,51.5,32.0,29.99,WNW,302,1.0,1.0,47,0.00,,OVC095,0.00,VWS V14.01,2013-03-22 22:43:00,
2013-03-22 18:45:00,51.4,30.8,29.99,NNE,14,0.0,1.0,45,0.00,,SCT070,0.00,VWS V14.01,2013-03-22 22:45:00,
2013-03-22 18:48:00,51.2,30.6,29.99,NNE,14,0.0,0.0,45,0.00,,OVC095,0.00,VWS V14.01,2013-03-22 22:48:00,
2013-03-22 18:53:00,51.0,31.0,29.99,NNE,14,0.0,0.0,46,0.00,,OVC095,0.00,VWS V14.01,2013-03-22 22:53:00,
2013-03-22 18:58:00,50.9,31.9,29.99,NNE,14,0.0,0.0,48,0.00,,OVC095,0.00,VWS V14.01,2013-03-22 22:58:00,
2013-03-22 19:00:00,50.8,31.8,29.99,NNE,14,0.0,0.0,48,0.00,,SCT070,0.00,VWS V14.01,2013-03-22 23:00:00,
2013-03-22 19:03:00,50.6,32.2,29.99,NNE,14,0.0,0.0,49,0.00,,BKN110,0.00,VWS V14.01,2013-03-22 23:03:00,
2013-03-22 19:12:00,50.2,32.3,29.99,NNE,14,0.0,0.0,50,0.00,,BKN110,0.00,VWS V14.01,2013-03-22 23:12:00,
2013-03-22 19:15:00,50.1,32.7,29.99,NNE,14,0.0,0.0,51,0.00,,SCT070,0.00,VWS V14.01,2013-03-22 23:15:00,
2013-03-22 19:17:00,50.0,33.1,29.99,NNE,14,0.0,0.0,52,0.00,,BKN110,0.00,VWS V14.01,2013-03-22 23:17:00,
2013-03-22 19:27:00,49.4,33.5,30.00,NNE,14,0.0,0.0,54,0.00,,BKN110,0.00,VWS V14.01,2013-03-22 23:27:00,
2013-03-22 19:30:00,49.3,33.4,30.00,NNE,14,0.0,0.0,54,0.00,,SCT070,0.00,VWS V14.01,2013-03-22 23:30:00,
2013-03-22 19:32:00,49.2,32.8,30.00,NNE,14,0.0,0.0,53,0.00,,BKN110,0.00,VWS V14.01,2013-03-22 23:32:00,
2013-03-22 19:42:00,49.0,33.5,30.00,NNE,14,1.0,1.0,55,0.00,,BKN110,0.00,VWS V14.01,2013-03-22 23:42:00,
2013-03-22 19:45:00,48.9,32.5,30.00,NNE,14,0.0,1.0,53,0.00,,SCT070,0.00,VWS V14.01,2013-03-22 23:45:00,
2013-03-22 19:47:00,48.9,33.0,30.00,NNE,14,0.0,0.0,54,0.00,,BKN110,0.00,VWS V14.01,2013-03-22 23:47:00,
2013-03-22 19:57:00,48.9,33.0,30.00,NNE,14,0.0,0.0,54,0.00,,BKN110,0.00,VWS V14.01,2013-03-22 23:57:00,
2013-03-22 20:00:00,48.9,33.0,30.01,NNE,14,0.0,0.0,54,0.00,,SCT070,0.00,VWS V14.01,2013-03-23 00:00:00,
2013-03-22 20:02:00,48.8,32.4,30.01,NNE,14,0.0,1.0,53,0.00,,SCT110,0.00,VWS V14.01,2013-03-23 00:02:00,
2013-03-22 20:12:00,48.6,33.2,30.01,NNE,14,0.0,1.0,55,0.00,,SCT110,0.00,VWS V14.01,2013-03-23 00:12:00,
2013-03-22 20:15:00,48.5,33.1,30.01,NNE,14,0.0,1.0,55,0.00,,SCT070,0.00,VWS V14.01,2013-03-23 00:15:00,
2013-03-22 20:22:00,48.2,34.1,30.00,NNE,14,0.0,0.0,58,0.00,,SCT110,0.00,VWS V14.01,2013-03-23 00:22:00,
2013-03-22 20:27:00,48.1,34.5,30.00,NNE,14,0.0,0.0,59,0.00,,SCT110,0.00,VWS V14.01,2013-03-23 00:27:00,
2013-03-22 20:30:00,48.0,34.4,30.00,NNE,14,0.0,0.0,59,0.00,,SCT070,0.00,VWS V14.01,2013-03-23 00:30:00,
2013-03-22 20:32:00,47.9,33.8,30.00,NNE,14,0.0,0.0,58,0.00,,SCT110,0.00,VWS V14.01,2013-03-23 00:32:00,
2013-03-22 20:37:00,47.7,34.1,30.00,NNE,14,0.0,0.0,59,0.00,,SCT110,0.00,VWS V14.01,2013-03-23 00:37:00,
2013-03-22 20:42:00,47.5,33.5,30.00,NNE,14,0.0,0.0,58,0.00,,SCT110,0.00,VWS V14.01,2013-03-23 00:42:00,
2013-03-22 20:45:00,47.4,33.4,30.00,NNE,14,0.0,0.0,58,0.00,,SCT070,0.00,VWS V14.01,2013-03-23 00:45:00,
2013-03-22 20:52:00,47.2,34.0,30.00,NNE,14,0.0,0.0,60,0.00,,SCT110,0.00,VWS V14.01,2013-03-23 00:52:00,
2013-03-22 21:00:00,47.0,33.8,30.00,NNE,14,0.0,0.0,60,0.00,,SCT110,0.00,VWS V14.01,2013-03-23 01:00:00,
2013-03-22 21:07:00,46.8,34.1,30.00,NNE,14,0.0,0.0,61,0.00,,OVC110,0.00,VWS V14.01,2013-03-23 01:07:00,
2013-03-22 21:15:00,46.5,34.2,30.00,NNE,14,0.0,0.0,62,0.00,,OVC110,0.00,VWS V14.01,2013-03-23 01:15:00,
2013-03-22 21:22:00,46.3,34.8,30.01,NNE,14,0.0,0.0,64,0.00,,OVC110,0.00,VWS V14.01,2013-03-23 01:22:00,
2013-03-22 21:27:00,46.2,35.1,30.01,NNE,14,0.0,0.0,65,0.00,,OVC110,0.00,VWS V14.01,2013-03-23 01:27:00,
2013-03-22 21:30:00,46.1,35.4,30.01,NNE,14,0.0,0.0,66,0.00,,SCT070,0.00,VWS V14.01,2013-03-23 01:30:00,
2013-03-22 21:32:00,46.0,35.3,30.01,NNE,14,0.0,0.0,66,0.00,,OVC110,0.00,VWS V14.01,2013-03-23 01:32:00,
2013-03-22 21:42:00,45.6,34.5,30.01,NNE,14,0.0,0.0,65,0.00,,OVC110,0.00,VWS V14.01,2013-03-23 01:42:00,
2013-03-22 21:45:00,45.4,34.7,30.01,NNE,14,0.0,0.0,66,0.00,,SCT070,0.00,VWS V14.01,2013-03-23 01:45:00,
2013-03-22 21:47:00,45.3,35.0,30.01,NNE,14,0.0,0.0,67,0.00,,OVC110,0.00,VWS V14.01,2013-03-23 01:47:00,
2013-03-22 21:52:00,45.1,35.2,30.02,NNE,14,0.0,0.0,68,0.00,,OVC110,0.00,VWS V14.01,2013-03-23 01:52:00,
2013-03-22 21:57:00,44.9,35.4,30.02,NNE,14,0.0,0.0,69,0.00,,OVC110,0.00,VWS V14.01,2013-03-23 01:57:00,
2013-03-22 22:00:00,44.8,34.9,30.02,NNE,14,0.0,0.0,68,0.00,,SCT070,0.00,VWS V14.01,2013-03-23 02:00:00,
2013-03-22 22:02:00,44.6,35.1,30.01,NNE,14,0.0,0.0,69,0.00,,BKN100,0.00,VWS V14.01,2013-03-23 02:02:00,
2013-03-22 22:12:00,44.2,34.7,30.01,NNE,14,0.0,0.0,69,0.00,,BKN100,0.00,VWS V14.01,2013-03-23 02:12:00,
2013-03-22 22:15:00,44.1,34.6,30.01,NNE,14,0.0,0.0,69,0.00,,SCT070,0.00,VWS V14.01,2013-03-23 02:15:00,
2013-03-22 22:17:00,44.0,34.5,30.02,NNE,14,0.0,0.0,69,0.00,,BKN100,0.00,VWS V14.01,2013-03-23 02:17:00,
2013-03-22 22:22:00,43.8,34.3,30.01,NNE,14,0.0,0.0,69,0.00,,BKN100,0.00,VWS V14.01,2013-03-23 02:22:00,
2013-03-22 22:30:00,43.6,34.5,30.02,NNE,14,0.0,0.0,70,0.00,,BKN100,0.00,VWS V14.01,2013-03-23 02:30:00,
2013-03-22 22:37:00,43.4,34.6,30.02,NNE,14,0.0,0.0,71,0.00,,BKN100,0.00,VWS V14.01,2013-03-23 02:37:00,
2013-03-22 22:42:00,43.3,34.5,30.02,NNE,14,0.0,0.0,71,0.00,,BKN100,0.00,VWS V14.01,2013-03-23 02:42:00,
2013-03-22 22:45:00,43.3,34.9,30.02,NNE,14,0.0,0.0,72,0.00,,SCT070,0.00,VWS V14.01,2013-03-23 02:45:00,
2013-03-22 22:47:00,43.2,34.8,30.02,NNE,14,0.0,0.0,72,0.00,,BKN100,0.00,VWS V14.01,2013-03-23 02:47:00,
2013-03-22 22:57:00,42.8,34.1,30.01,NNE,14,0.0,0.0,71,0.00,,BKN100,0.00,VWS V14.01,2013-03-23 02:57:00,
2013-03-22 23:00:00,42.7,34.3,30.01,NNE,14,0.0,0.0,72,0.00,,SCT070,0.00,VWS V14.01,2013-03-23 03:00:00,
2013-03-22 23:02:00,42.6,34.2,30.01,NNE,14,0.0,0.0,72,0.00,,FEW100,0.00,VWS V14.01,2013-03-23 03:02:00,
2013-03-22 23:07:00,42.3,34.3,30.02,NNE,14,0.0,0.0,73,0.00,,FEW100,0.00,VWS V14.01,2013-03-23 03:07:00,
2013-03-22 23:12:00,42.0,34.0,30.01,NNE,14,0.0,0.0,73,0.00,,FEW100,0.00,VWS V14.01,2013-03-23 03:12:00,
2013-03-22 23:15:00,41.9,34.6,30.02,NNE,14,0.0,0.0,75,0.00,,SCT070,0.00,VWS V14.01,2013-03-23 03:15:00,
2013-03-22 23:17:00,41.8,34.5,30.02,NNE,14,0.0,0.0,75,0.00,,FEW100,0.00,VWS V14.01,2013-03-23 03:17:00,
2013-03-22 23:22:00,41.6,34.6,30.02,NNE,14,0.0,0.0,76,0.00,,FEW100,0.00,VWS V14.01,2013-03-23 03:22:00,
2013-03-22 23:27:00,41.4,34.4,30.02,NNE,14,0.0,0.0,76,0.00,,FEW100,0.00,VWS V14.01,2013-03-23 03:27:00,
2013-03-22 23:30:00,41.3,34.3,30.02,NNE,14,0.0,0.0,76,0.00,,SCT070,0.00,VWS V14.01,2013-03-23 03:30:00,
2013-03-22 23:37:00,41.0,34.0,30.02,NNE,14,0.0,0.0,76,0.00,,FEW100,0.00,VWS V14.01,2013-03-23 03:37:00,
2013-03-22 23:42:00,40.9,34.3,30.02,NNE,14,0.0,0.0,77,0.00,,FEW100,0.00,VWS V14.01,2013-03-23 03:42:00,
2013-03-22 23:45:00,40.8,34.2,30.02,NNE,14,0.0,0.0,77,0.00,,SCT070,0.00,VWS V14.01,2013-03-23 03:45:00,
2013-03-22 23:52:00,40.6,34.0,30.02,NNE,14,0.0,0.0,77,0.00,,FEW100,0.00,VWS V14.01,2013-03-23 03:52:00,
2013-03-22 23:57:00,40.4,33.8,30.02,NNE,14,0.0,0.0,77,0.00,,FEW100,0.00,VWS V14.01,2013-03-23 03:57:00,